createdAt,value
2018-04-12T00:00:04.341Z,77.21
2018-04-12T00:00:44.818Z,77.21
2018-04-12T00:01:25.280Z,77.5
2018-04-12T00:02:05.947Z,76.82
2018-04-12T00:02:46.276Z,77.02
2018-04-12T00:03:26.785Z,76.92
2018-04-12T00:04:07.288Z,76.82
2018-04-12T00:04:47.807Z,76.82
2018-04-12T00:05:28.326Z,77.4
2018-04-12T00:06:08.849Z,77.11
2018-04-12T00:06:49.365Z,77.5
2018-04-12T00:07:29.890Z,77.5
2018-04-12T00:08:10.408Z,76.92
2018-04-12T00:08:50.920Z,76.92
2018-04-12T00:09:31.441Z,77.11
2018-04-12T00:10:11.960Z,77.02
2018-04-12T00:10:52.476Z,76.92
2018-04-12T00:11:32.984Z,76.64
2018-04-12T00:12:13.506Z,76.44
2018-04-12T00:12:54.018Z,76.54
2018-04-12T00:13:34.535Z,76.54
2018-04-12T00:14:15.053Z,76.54
2018-04-12T00:14:55.559Z,76.64
2018-04-12T00:15:36.073Z,76.64
2018-04-12T00:16:16.593Z,76.64
2018-04-12T00:16:57.107Z,76.35
2018-04-12T00:17:37.614Z,76.64
2018-04-12T00:18:18.137Z,76.64
2018-04-12T00:18:58.656Z,76.25
2018-04-12T00:19:39.177Z,76.73
2018-04-12T00:20:19.693Z,76.35
2018-04-12T00:21:00.225Z,77.11
2018-04-12T00:21:40.756Z,76.44
2018-04-12T00:22:21.279Z,76.54
2018-04-12T00:23:01.863Z,76.64
2018-04-12T00:23:42.369Z,75.87
2018-04-12T00:24:22.904Z,76.64
2018-04-12T00:25:03.412Z,76.54
2018-04-12T00:25:43.935Z,76.44
2018-04-12T00:26:24.462Z,76.54
2018-04-12T00:27:04.999Z,75.96
2018-04-12T00:27:45.499Z,76.25
2018-04-12T00:28:26.041Z,75.96
2018-04-12T00:29:06.545Z,75.77
2018-04-12T00:29:47.073Z,75.96
2018-04-12T00:30:27.609Z,75.96
2018-04-12T00:31:08.130Z,75.87
2018-04-12T00:31:48.663Z,76.15
2018-04-12T00:32:29.182Z,75.96
2018-04-12T00:33:09.691Z,76.06
2018-04-12T00:33:50.210Z,76.54
2018-04-12T00:34:30.734Z,76.54
2018-04-12T00:35:11.253Z,75.96
2018-04-12T00:35:51.761Z,76.06
2018-04-12T00:36:32.281Z,75.77
2018-04-12T00:37:12.799Z,76.64
2018-04-12T00:37:53.320Z,76.54
2018-04-12T00:38:33.832Z,76.35
2018-04-12T00:39:14.338Z,76.35
2018-04-12T00:39:54.853Z,76.54
2018-04-12T00:40:35.370Z,76.54
2018-04-12T00:41:15.897Z,76.44
2018-04-12T00:41:56.417Z,76.35
2018-04-12T00:42:36.942Z,77.02
2018-04-12T00:43:17.485Z,77.11
2018-04-12T00:43:57.998Z,76.73
2018-04-12T00:44:38.532Z,76.82
2018-04-12T00:45:19.047Z,77.21
2018-04-12T00:45:59.551Z,76.92
2018-04-12T00:46:40.076Z,76.82
2018-04-12T00:47:20.601Z,77.11
2018-04-12T00:48:01.113Z,77.5
2018-04-12T00:48:41.634Z,77.59
2018-04-12T00:49:22.166Z,77.4
2018-04-12T00:50:02.666Z,77.69
2018-04-12T00:50:43.179Z,78.07
2018-04-12T00:51:23.690Z,77.65
2018-04-12T00:52:04.206Z,78.22
2018-04-12T00:52:44.717Z,78.17
2018-04-12T00:53:25.229Z,78.17
2018-04-12T00:54:05.759Z,77.94
2018-04-12T00:54:46.273Z,78.13
2018-04-12T00:55:26.786Z,78.13
2018-04-12T00:56:07.296Z,78.07
2018-04-12T00:56:47.830Z,78.45
2018-04-12T00:57:28.330Z,78.55
2018-04-12T00:58:08.846Z,78.17
2018-04-12T00:58:49.359Z,77.97
2018-04-12T00:59:29.880Z,78.36
2018-04-12T01:00:10.394Z,77.94
2018-04-12T01:00:50.899Z,78.17
2018-04-12T01:01:31.404Z,78.17
2018-04-12T01:02:11.932Z,78.42
2018-04-12T01:02:52.439Z,78.13
2018-04-12T01:03:32.955Z,78.22
2018-04-12T01:04:13.515Z,78.7
2018-04-12T01:04:54.025Z,78.13
2018-04-12T01:05:34.540Z,78.27
2018-04-12T01:06:15.060Z,78.03
2018-04-12T01:06:55.579Z,78.45
2018-04-12T01:07:36.098Z,78.32
2018-04-12T01:08:16.611Z,78.7
2018-04-12T01:08:57.132Z,78.42
2018-04-12T01:09:37.653Z,78.99
2018-04-12T01:10:18.182Z,78.07
2018-04-12T01:10:58.696Z,78.13
2018-04-12T01:11:39.203Z,78.7
2018-04-12T01:12:19.733Z,78.89
2018-04-12T01:13:00.249Z,78.42
2018-04-12T01:13:40.763Z,78.51
2018-04-12T01:14:21.277Z,78.61
2018-04-12T01:15:01.809Z,78.51
2018-04-12T01:15:42.310Z,78.7
2018-04-12T01:16:22.823Z,79.57
2018-04-12T01:17:03.352Z,79.57
2018-04-12T01:17:43.864Z,78.61
2018-04-12T01:18:24.370Z,78.7
2018-04-12T01:19:04.884Z,78.51
2018-04-12T01:19:45.413Z,79.28
2018-04-12T01:20:25.929Z,79.47
2018-04-12T01:21:06.438Z,79.18
2018-04-12T01:21:46.958Z,79.37
2018-04-12T01:22:27.474Z,79.37
2018-04-12T01:23:07.995Z,79.57
2018-04-12T01:23:48.511Z,79.28
2018-04-12T01:24:29.037Z,79.28
2018-04-12T01:25:09.543Z,80.33
2018-04-12T01:25:50.056Z,80.52
2018-04-12T01:26:30.567Z,80.04
2018-04-12T01:27:11.074Z,79.95
2018-04-12T01:27:51.590Z,80.04
2018-04-12T01:28:32.099Z,79.75
2018-04-12T01:29:12.620Z,79.75
2018-04-12T01:29:53.148Z,80.14
2018-04-12T01:30:33.666Z,80.04
2018-04-12T01:31:14.189Z,80.33
2018-04-12T01:31:54.709Z,79.75
2018-04-12T01:32:35.229Z,80.33
2018-04-12T01:33:15.749Z,80.14
2018-04-12T01:33:56.260Z,79.75
2018-04-12T01:34:36.772Z,79.75
2018-04-12T01:35:17.284Z,80.62
2018-04-12T01:35:57.796Z,80.33
2018-04-12T01:36:38.324Z,80.52
2018-04-12T01:37:18.837Z,80.52
2018-04-12T01:37:59.349Z,80.24
2018-04-12T01:38:39.863Z,80.52
2018-04-12T01:39:20.382Z,80.33
2018-04-12T01:40:00.895Z,80.43
2018-04-12T01:40:41.435Z,80.43
2018-04-12T01:41:21.940Z,80.48
2018-04-12T01:42:02.457Z,81.05
2018-04-12T01:42:42.981Z,80.62
2018-04-12T01:43:23.490Z,80.48
2018-04-12T01:44:04.009Z,80.33
2018-04-12T01:44:44.521Z,80.62
2018-04-12T01:45:25.045Z,80.62
2018-04-12T01:46:05.555Z,80.52
2018-04-12T01:46:46.064Z,80.71
2018-04-12T01:47:26.582Z,80.33
2018-04-12T01:48:07.109Z,80.81
2018-04-12T01:48:47.621Z,80.71
2018-04-12T01:49:28.136Z,80.71
2018-04-12T01:50:08.659Z,81.54
2018-04-12T01:50:49.178Z,81.48
2018-04-12T01:51:29.694Z,80.67
2018-04-12T01:52:10.214Z,81.63
2018-04-12T01:52:50.735Z,81.48
2018-04-12T01:53:31.255Z,80.87
2018-04-12T01:54:11.767Z,81.25
2018-04-12T01:54:52.288Z,81.15
2018-04-12T01:55:32.812Z,81.25
2018-04-12T01:56:13.327Z,81.25
2018-04-12T01:56:53.840Z,81.25
2018-04-12T01:57:34.366Z,81.05
2018-04-12T01:58:14.877Z,81.34
2018-04-12T01:58:55.389Z,81.15
2018-04-12T01:59:35.906Z,81.57
2018-04-12T02:00:16.420Z,81.15
2018-04-12T02:00:56.942Z,81.15
2018-04-12T02:01:37.475Z,81.54
2018-04-12T02:02:17.990Z,81.34
2018-04-12T02:02:58.502Z,81.82
2018-04-12T02:03:39.027Z,81.15
2018-04-12T02:04:19.543Z,81.44
2018-04-12T02:05:00.055Z,81.82
2018-04-12T02:05:40.581Z,81.44
2018-04-12T02:06:21.101Z,81.63
2018-04-12T02:07:01.621Z,81.44
2018-04-12T02:07:42.129Z,81.82
2018-04-12T02:08:22.642Z,81.15
2018-04-12T02:09:03.164Z,81.54
2018-04-12T02:09:43.698Z,81.92
2018-04-12T02:10:24.216Z,81.63
2018-04-12T02:11:04.734Z,81.82
2018-04-12T02:11:45.256Z,81.34
2018-04-12T02:12:25.779Z,81.63
2018-04-12T02:13:06.301Z,81.44
2018-04-12T02:13:46.811Z,81.63
2018-04-12T02:14:27.327Z,81.54
2018-04-12T02:15:07.842Z,81.63
2018-04-12T02:15:48.355Z,81.82
2018-04-12T02:16:28.898Z,81.34
2018-04-12T02:17:09.420Z,81.63
2018-04-12T02:17:49.950Z,81.25
2018-04-12T02:18:30.472Z,81.25
2018-04-12T02:19:10.983Z,81.25
2018-04-12T02:19:51.524Z,81.82
2018-04-12T02:20:32.044Z,81.73
2018-04-12T02:21:12.564Z,81.54
2018-04-12T02:21:53.075Z,81.82
2018-04-12T02:22:33.608Z,81.63
2018-04-12T02:23:14.127Z,81.54
2018-04-12T02:23:54.663Z,81.54
2018-04-12T02:24:35.160Z,81.63
2018-04-12T02:25:15.685Z,81.92
2018-04-12T02:25:56.218Z,81.92
2018-04-12T02:26:36.741Z,82.01
2018-04-12T02:27:17.250Z,81.54
2018-04-12T02:27:57.756Z,81.82
2018-04-12T02:28:38.275Z,81.82
2018-04-12T02:29:18.790Z,81.63
2018-04-12T02:29:59.311Z,82.01
2018-04-12T02:30:39.831Z,81.63
2018-04-12T02:31:20.343Z,82.01
2018-04-12T02:32:00.863Z,81.82
2018-04-12T02:32:41.378Z,82.2
2018-04-12T02:33:21.896Z,81.63
2018-04-12T02:34:02.408Z,82.01
2018-04-12T02:34:42.922Z,81.82
2018-04-12T02:35:23.438Z,81.82
2018-04-12T02:36:03.955Z,81.63
2018-04-12T02:36:44.481Z,81.82
2018-04-12T02:37:25.002Z,81.92
2018-04-12T02:38:05.529Z,81.73
2018-04-12T02:38:46.041Z,81.82
2018-04-12T02:39:26.559Z,81.82
2018-04-12T02:40:07.072Z,81.92
2018-04-12T02:40:47.590Z,82.2
2018-04-12T02:41:28.106Z,82.4
2018-04-12T02:42:08.639Z,81.73
2018-04-12T02:42:49.145Z,82.4
2018-04-12T02:43:29.683Z,82.4
2018-04-12T02:44:10.206Z,82.17
2018-04-12T02:44:50.730Z,83.06
2018-04-12T02:45:31.243Z,83.03
2018-04-12T02:46:11.762Z,82.87
2018-04-12T02:46:52.275Z,82.97
2018-04-12T02:47:32.791Z,82.4
2018-04-12T02:48:13.305Z,82.4
2018-04-12T02:48:53.814Z,82.4
2018-04-12T02:49:34.342Z,81.92
2018-04-12T02:50:14.857Z,81.92
2018-04-12T02:50:55.367Z,82.01
2018-04-12T02:51:35.888Z,82.01
2018-04-12T02:52:16.419Z,82.4
2018-04-12T02:52:56.928Z,82.2
2018-04-12T02:53:37.437Z,82.11
2018-04-12T02:54:17.956Z,82.4
2018-04-12T02:54:58.460Z,82.2
2018-04-12T02:55:38.978Z,82.4
2018-04-12T02:56:19.494Z,82.2
2018-04-12T02:57:00.019Z,82.2
2018-04-12T02:57:40.551Z,82.49
2018-04-12T02:58:21.067Z,81.63
2018-04-12T02:59:01.574Z,82.4
2018-04-12T02:59:42.089Z,82.2
2018-04-12T03:00:22.632Z,82.3
2018-04-12T03:02:12.390Z,82.11
2018-04-12T03:02:52.915Z,82.49
2018-04-12T03:03:33.425Z,82.4
2018-04-12T03:04:13.944Z,81.92
2018-04-12T03:04:54.453Z,82.01
2018-04-12T03:05:34.973Z,81.92
2018-04-12T03:06:15.475Z,82.2
2018-04-12T03:06:55.994Z,82.3
2018-04-12T03:07:36.517Z,82.4
2018-04-12T03:08:17.028Z,82.3
2018-04-12T03:08:57.547Z,81.82
2018-04-12T03:09:38.072Z,82.3
2018-04-12T03:10:18.589Z,81.73
2018-04-12T03:10:59.093Z,82.4
2018-04-12T03:11:39.608Z,82.3
2018-04-12T03:12:20.132Z,82.4
2018-04-12T03:13:00.671Z,82.2
2018-04-12T03:13:41.202Z,82.3
2018-04-12T03:14:21.719Z,82.3
2018-04-12T03:15:02.246Z,82.4
2018-04-12T03:15:42.759Z,82.4
2018-04-12T03:16:23.286Z,82.49
2018-04-12T03:17:03.805Z,82.4
2018-04-12T03:17:44.327Z,82.49
2018-04-12T03:18:24.846Z,82.4
2018-04-12T03:19:05.360Z,82.01
2018-04-12T03:19:45.875Z,82.4
2018-04-12T03:20:26.386Z,82.3
2018-04-12T03:21:06.910Z,82.3
2018-04-12T03:21:47.422Z,82.78
2018-04-12T03:22:27.938Z,83.06
2018-04-12T03:23:08.457Z,82.68
2018-04-12T03:23:48.977Z,83.06
2018-04-12T03:24:29.504Z,83.16
2018-04-12T03:25:10.010Z,82.68
2018-04-12T03:25:50.529Z,82.45
2018-04-12T03:26:31.047Z,82.74
2018-04-12T03:27:11.577Z,83.12
2018-04-12T03:27:52.089Z,82.83
2018-04-12T03:28:32.610Z,82.83
2018-04-12T03:29:13.121Z,83.03
2018-04-12T03:29:53.691Z,83.12
2018-04-12T03:30:34.155Z,82.68
2018-04-12T03:31:14.666Z,83.22
2018-04-12T03:31:55.181Z,83.03
2018-04-12T03:32:35.691Z,83.5
2018-04-12T03:33:16.227Z,83.31
2018-04-12T03:33:56.712Z,83.31
2018-04-12T03:34:37.239Z,83.4
2018-04-12T03:35:17.765Z,83.12
2018-04-12T03:35:58.325Z,83.31
2018-04-12T03:36:38.844Z,83.31
2018-04-12T03:37:19.380Z,83.69
2018-04-12T03:37:59.880Z,83.5
2018-04-12T03:38:40.423Z,83.69
2018-04-12T03:39:20.934Z,83.03
2018-04-12T03:40:01.441Z,83.5
2018-04-12T03:40:41.971Z,83.6
2018-04-12T03:41:22.479Z,83.22
2018-04-12T03:42:03.003Z,82.93
2018-04-12T03:42:43.523Z,83.12
2018-04-12T03:43:24.045Z,83.12
2018-04-12T03:44:04.646Z,83.31
2018-04-12T03:44:45.183Z,83.4
2018-04-12T03:45:25.723Z,83.22
2018-04-12T03:46:06.242Z,83.12
2018-04-12T03:46:46.745Z,83.31
2018-04-12T03:47:27.273Z,83.31
2018-04-12T03:48:07.782Z,82.93
2018-04-12T03:50:21.101Z,83.6
2018-04-12T03:51:01.576Z,83.03
2018-04-12T03:51:42.088Z,83.89
2018-04-12T03:52:22.611Z,83.79
2018-04-12T03:53:03.130Z,83.89
2018-04-12T03:53:43.651Z,85.03
2018-04-12T03:54:24.170Z,84.46
2018-04-12T03:55:04.697Z,84.36
2018-04-12T03:55:45.213Z,84.36
2018-04-12T03:56:25.752Z,84.36
2018-04-12T03:57:06.278Z,84.36
2018-04-12T03:57:46.781Z,84.17
2018-04-12T03:58:27.307Z,84.65
2018-04-12T03:59:07.844Z,83.89
2018-04-12T03:59:48.357Z,83.89
2018-04-12T04:00:28.848Z,83.79
2018-04-12T04:01:09.367Z,83.79
2018-04-12T04:01:49.887Z,84.36
2018-04-12T04:02:30.391Z,84.36
2018-04-12T04:03:10.917Z,84.27
2018-04-12T04:03:51.451Z,84.46
2018-04-12T04:04:31.968Z,84.65
2018-04-12T04:05:12.464Z,83.98
2018-04-12T04:05:52.989Z,83.89
2018-04-12T04:06:33.524Z,83.98
2018-04-12T04:07:14.027Z,83.98
2018-04-12T04:07:54.601Z,84.08
2018-04-12T04:08:35.138Z,83.98
2018-04-12T04:09:15.651Z,83.6
2018-04-12T04:09:56.202Z,83.79
2018-04-12T04:10:36.715Z,84.08
2018-04-12T04:11:17.207Z,83.98
2018-04-12T04:11:57.714Z,84.55
2018-04-12T04:12:38.251Z,84.55
2018-04-12T04:13:18.770Z,83.79
2018-04-12T04:13:59.312Z,84.17
2018-04-12T04:14:39.783Z,84.55
2018-04-12T04:15:20.311Z,84.36
2018-04-12T04:16:00.849Z,84.46
2018-04-12T04:16:41.482Z,84.36
2018-04-12T04:17:21.991Z,84.46
2018-04-12T04:18:02.502Z,84.46
2018-04-12T04:18:43.023Z,84.36
2018-04-12T04:19:23.540Z,84.27
2018-04-12T04:20:04.142Z,84.08
2018-04-12T04:20:46.653Z,84.17
2018-04-12T04:21:27.123Z,84.46
2018-04-12T04:22:07.642Z,84.08
2018-04-12T04:22:48.158Z,84.46
2018-04-12T04:23:28.670Z,84.36
2018-04-12T04:24:09.208Z,84.36
2018-04-12T04:24:49.717Z,85.03
2018-04-12T04:25:30.241Z,84.84
2018-04-12T04:26:10.770Z,85.13
2018-04-12T04:26:51.312Z,85.03
2018-04-12T04:27:31.981Z,84.55
2018-04-12T04:28:12.499Z,84.36
2018-04-12T04:28:53.022Z,84.27
2018-04-12T04:29:33.541Z,84.36
2018-04-12T04:30:14.066Z,84.36
2018-04-12T04:30:54.585Z,84.36
2018-04-12T04:31:35.124Z,84.46
2018-04-12T04:32:15.650Z,84.46
2018-04-12T04:32:56.170Z,84.36
2018-04-12T04:33:36.689Z,84.84
2018-04-12T04:34:17.226Z,85.03
2018-04-12T04:34:57.740Z,84.94
2018-04-12T04:35:38.251Z,85.03
2018-04-12T04:36:18.765Z,85.03
2018-04-12T04:36:59.282Z,84.94
2018-04-12T04:37:39.809Z,84.94
2018-04-12T04:38:20.305Z,85.03
2018-04-12T04:39:00.815Z,85.32
2018-04-12T04:39:41.340Z,85.03
2018-04-12T04:40:21.862Z,84.94
2018-04-12T04:41:02.372Z,85.22
2018-04-12T04:41:42.886Z,85.22
2018-04-12T04:42:23.405Z,85.22
2018-04-12T04:43:03.930Z,85.13
2018-04-12T04:43:44.445Z,84.75
2018-04-12T04:44:24.964Z,84.84
2018-04-12T04:45:05.488Z,85.13
2018-04-12T04:45:46.030Z,84.84
2018-04-12T04:46:27.648Z,84.84
2018-04-12T04:47:08.161Z,84.94
2018-04-12T04:47:48.670Z,84.94
2018-04-12T04:48:29.180Z,84.84
2018-04-12T04:49:09.710Z,85.22
2018-04-12T04:49:50.236Z,84.94
2018-04-12T04:50:30.750Z,84.94
2018-04-12T04:51:11.254Z,85.32
2018-04-12T04:51:51.771Z,85.22
2018-04-12T04:52:32.294Z,85.32
2018-04-12T04:53:12.804Z,84.84
2018-04-12T04:53:53.314Z,84.94
2018-04-12T04:54:33.818Z,84.75
2018-04-12T04:55:14.340Z,84.55
2018-04-12T04:55:54.840Z,84.84
2018-04-12T04:56:35.376Z,84.65
2018-04-12T04:57:15.855Z,84.84
2018-04-12T04:57:56.396Z,85.22
2018-04-12T04:58:36.910Z,84.55
2018-04-12T04:59:17.426Z,85.32
2018-04-12T04:59:57.963Z,85.32
2018-04-12T05:00:38.480Z,85.13
2018-04-12T05:01:19.016Z,84.75
2018-04-12T05:01:59.528Z,84.84
2018-04-12T05:02:40.026Z,84.65
2018-04-12T05:03:20.546Z,84.84
2018-04-12T05:04:01.109Z,84.94
2018-04-12T05:04:41.625Z,84.84
2018-04-12T05:05:22.154Z,84.36
2018-04-12T05:06:02.672Z,84.12
2018-04-12T05:06:43.201Z,84.55
2018-04-12T05:07:23.721Z,84.08
2018-04-12T05:08:04.242Z,84.27
2018-04-12T05:08:44.773Z,84.08
2018-04-12T05:09:25.300Z,84.59
2018-04-12T05:10:05.808Z,83.89
2018-04-12T05:10:46.341Z,83.93
2018-04-12T05:11:26.845Z,83.93
2018-04-12T05:12:07.352Z,83.93
2018-04-12T05:12:47.848Z,83.54
2018-04-12T05:13:28.390Z,85.27
2018-04-12T05:14:08.896Z,91.58
2018-04-12T05:14:49.443Z,92.63
2018-04-12T05:15:30.061Z,91.11
2018-04-12T05:16:10.473Z,88.43
2018-04-12T05:16:50.976Z,93.3
2018-04-12T05:17:31.488Z,91.77
2018-04-12T05:18:11.996Z,93.3
2018-04-12T05:18:52.502Z,97.13
2018-04-12T05:19:33.032Z,98.76
2018-04-12T05:20:13.542Z,99.99
2018-04-12T05:20:54.053Z,99.99
2018-04-12T05:21:34.572Z,99.99
2018-04-12T05:22:15.102Z,99.52
2018-04-12T05:22:55.627Z,97.8
2018-04-12T05:23:36.168Z,94.74
2018-04-12T05:24:16.689Z,94.45
2018-04-12T05:24:57.160Z,94.74
2018-04-12T05:25:37.693Z,94.07
2018-04-12T05:26:18.213Z,94.36
2018-04-12T05:26:58.732Z,94.4
2018-04-12T05:27:39.254Z,99.38
2018-04-12T05:28:19.780Z,95.41
2018-04-12T05:29:00.304Z,97.09
2018-04-12T05:29:40.825Z,96.99
2018-04-12T05:30:21.333Z,96.7
2018-04-12T05:31:01.855Z,92.87
2018-04-12T05:31:42.363Z,90.34
2018-04-12T05:32:22.870Z,92.58
2018-04-12T05:33:03.404Z,96.13
2018-04-12T05:33:43.912Z,95.36
2018-04-12T05:34:24.414Z,91.25
2018-04-12T05:35:04.937Z,88.76
2018-04-12T05:35:45.534Z,89.48
2018-04-12T05:36:26.073Z,93.45
2018-04-12T05:37:07.293Z,89.43
2018-04-12T05:37:49.298Z,87.61
2018-04-12T05:38:39.081Z,88.37
2018-04-12T05:39:22.518Z,90.86
2018-04-12T05:40:07.134Z,91.92
2018-04-12T05:40:49.622Z,91.72
2018-04-12T05:41:43.653Z,90.29
2018-04-12T05:42:26.491Z,90.09
2018-04-12T05:43:09.120Z,91.53
2018-04-12T05:43:52.722Z,91.92
2018-04-12T05:44:37.788Z,91.15
2018-04-12T05:45:23.899Z,88.95
2018-04-12T05:46:06.269Z,86.94
2018-04-12T05:46:50.503Z,87.13
2018-04-12T05:47:32.277Z,87.08
2018-04-12T05:48:13.598Z,86.17
2018-04-12T05:48:54.185Z,84.35
2018-04-12T05:49:35.775Z,87.03
2018-04-12T05:50:19.556Z,87.32
2018-04-12T05:51:02.992Z,85.35
2018-04-12T05:51:48.616Z,83.78
2018-04-12T05:52:32.183Z,84.58
2018-04-12T05:53:14.786Z,86.6
2018-04-12T05:53:57.452Z,86.98
2018-04-12T05:54:38.816Z,86.69
2018-04-12T05:55:21.182Z,86.5
2018-04-12T05:56:04.556Z,87.37
2018-04-12T05:56:46.011Z,86.88
2018-04-12T05:57:32.455Z,86.41
2018-04-12T05:58:14.028Z,84.72
2018-04-12T05:58:54.543Z,87.41
2018-04-12T05:59:34.999Z,89.13
2018-04-12T06:00:15.671Z,93.35
2018-04-12T06:00:56.219Z,93.26
2018-04-12T06:01:36.747Z,90.19
2018-04-12T06:02:17.429Z,90.57
2018-04-12T06:02:58.151Z,88.27
2018-04-12T06:03:38.829Z,90.76
2018-04-12T06:04:19.384Z,89.04
2018-04-12T06:05:00.098Z,90.19
2018-04-12T06:05:40.711Z,90.9
2018-04-12T06:06:21.955Z,86.64
2018-04-12T06:07:02.424Z,89.18
2018-04-12T06:07:43.160Z,94.07
2018-04-12T06:08:23.683Z,97.61
2018-04-12T06:09:04.352Z,96.75
2018-04-12T06:09:45.018Z,95.51
2018-04-12T06:10:25.963Z,94.17
2018-04-12T06:11:06.523Z,86.11
2018-04-12T06:11:47.839Z,85.92
2018-04-12T06:12:32.551Z,95.21
2018-04-12T06:14:26.211Z,88.98
2018-04-12T06:15:07.688Z,93.88
2018-04-12T06:15:50.168Z,87.45
2018-04-12T06:16:33.919Z,83.23
2018-04-12T06:17:15.456Z,86.58
2018-04-12T06:17:58.688Z,90.14
2018-04-12T06:18:40.068Z,87.93
2018-04-12T06:19:23.080Z,83.04
2018-04-12T06:21:42.370Z,98.38
2018-04-12T06:22:30.991Z,94.54
2018-04-12T06:23:13.880Z,90.42
2018-04-12T06:23:59.707Z,87.21
2018-04-12T06:24:43.097Z,84.95
2018-04-12T06:25:25.446Z,81.89
2018-04-12T06:26:07.673Z,88.41
2018-04-12T06:26:48.593Z,89.99
2018-04-12T06:27:31.121Z,91.24
2018-04-12T06:28:12.934Z,91.24
2018-04-12T06:28:54.665Z,92
2018-04-12T06:29:36.389Z,90.08
2018-04-12T06:30:18.411Z,89.99
2018-04-12T06:31:00.720Z,86.01
2018-04-12T06:31:42.902Z,88.17
2018-04-12T06:32:23.507Z,86.44
2018-04-12T06:33:04.032Z,82.27
2018-04-12T06:33:44.542Z,84.58
2018-04-12T06:34:25.203Z,85.63
2018-04-12T06:35:05.699Z,85.72
2018-04-12T06:35:46.384Z,85.1
2018-04-12T06:36:27.001Z,85.77
2018-04-12T06:37:07.396Z,84.42
2018-04-12T06:37:48.060Z,82.51
2018-04-12T06:38:28.648Z,82.41
2018-04-12T06:39:09.174Z,81.64
2018-04-12T06:39:49.712Z,80.4
2018-04-12T06:40:30.191Z,83.08
2018-04-12T06:41:10.716Z,82.03
2018-04-12T06:41:52.884Z,83.75
2018-04-12T06:42:33.406Z,84.04
2018-04-12T06:44:38.317Z,88.74
2018-04-12T06:45:18.858Z,86.05
2018-04-12T06:45:59.393Z,86.15
2018-04-12T06:46:39.974Z,89.03
2018-04-12T06:47:20.455Z,89.18
2018-04-12T06:48:00.962Z,90.04
2018-04-12T06:48:41.541Z,90.23
2018-04-12T06:49:22.052Z,89.47
2018-04-12T06:50:02.580Z,87.16
2018-04-12T06:50:43.089Z,86.21
2018-04-12T06:51:23.617Z,84.67
2018-04-12T06:52:04.135Z,81.89
2018-04-12T06:52:44.668Z,81.41
2018-04-12T06:53:25.430Z,82.12
2018-04-12T06:54:05.973Z,85.38
2018-04-12T06:54:46.457Z,84.33
2018-04-12T06:55:27.104Z,86.05
2018-04-12T06:56:07.630Z,91.72
2018-04-12T06:56:48.164Z,89.41
2018-04-12T06:57:28.693Z,89.12
2018-04-12T06:58:09.210Z,89.61
2018-04-12T06:58:49.737Z,87.01
2018-04-12T06:59:30.340Z,82.12
2018-04-12T07:00:10.764Z,81.35
2018-04-12T07:00:51.284Z,92.33
2018-04-12T07:01:31.814Z,93.77
2018-04-12T07:02:12.329Z,89.36
2018-04-12T07:02:52.914Z,89.94
2018-04-12T07:03:33.651Z,83.65
2018-04-12T07:04:14.171Z,88.98
2018-04-12T07:04:54.891Z,88.79
2018-04-12T07:05:35.271Z,86
2018-04-12T07:06:15.785Z,87.44
2018-04-12T07:06:57.004Z,95.89
2018-04-12T07:07:37.593Z,91.86
2018-04-12T07:08:18.111Z,84.03
2018-04-12T07:08:59.218Z,85.95
2018-04-12T07:09:39.667Z,89.5
2018-04-12T07:10:20.161Z,87.58
2018-04-12T07:12:13.277Z,92.67
2018-04-12T07:12:53.766Z,95.98
2018-04-12T07:13:34.280Z,93.49
2018-04-12T07:14:14.832Z,96.85
2018-04-12T07:14:55.365Z,91.28
2018-04-12T07:15:35.890Z,87.43
2018-04-12T07:16:16.428Z,87.09
2018-04-12T07:16:56.937Z,89.4
2018-04-12T07:17:37.449Z,87.67
2018-04-12T07:18:17.973Z,86.52
2018-04-12T07:18:58.507Z,86.32
2018-04-12T07:19:39.029Z,87.09
2018-04-12T07:20:19.545Z,82.76
2018-04-12T07:21:00.110Z,79.6
2018-04-12T07:21:40.616Z,78.48
2018-04-12T07:22:21.140Z,86.18
2018-04-12T07:23:01.662Z,86.08
2018-04-12T07:23:42.189Z,80.79
2018-04-12T07:24:22.765Z,81.37
2018-04-12T07:25:03.280Z,84.63
2018-04-12T07:25:43.844Z,83.67
2018-04-12T07:26:24.358Z,78.58
2018-04-12T07:27:04.890Z,75.24
2018-04-12T07:27:45.400Z,79.05
2018-04-12T07:28:25.945Z,78.19
2018-04-12T07:29:06.469Z,79.35
2018-04-12T07:29:46.960Z,79.4
2018-04-12T07:30:27.488Z,74.6
2018-04-12T07:31:08.011Z,72.86
2018-04-12T07:31:48.530Z,72
2018-04-12T07:32:29.046Z,74.21
2018-04-12T07:33:09.583Z,73.92
2018-04-12T07:33:50.091Z,73.25
2018-04-12T07:34:30.616Z,76.81
2018-04-12T07:35:11.135Z,76.46
2018-04-12T07:35:52.537Z,76.17
2018-04-12T07:36:33.052Z,74.92
2018-04-12T07:37:13.596Z,73.67
2018-04-12T07:37:54.119Z,77.13
2018-04-12T07:38:34.648Z,74.63
2018-04-12T07:39:15.204Z,73.86
2018-04-12T07:39:56.190Z,76.65
2018-04-12T07:40:36.704Z,79.69
2018-04-12T07:41:17.220Z,77.19
2018-04-12T07:41:57.748Z,75.94
2018-04-12T07:42:38.263Z,72.86
2018-04-12T07:43:18.784Z,78.44
2018-04-12T07:43:59.309Z,81.61
2018-04-12T07:44:39.837Z,78.34
2018-04-12T07:45:20.345Z,77.61
2018-04-12T07:46:00.859Z,75.49
2018-04-12T07:46:41.381Z,74.34
2018-04-12T07:47:21.913Z,74.54
2018-04-12T07:48:02.429Z,73.47
2018-04-12T07:48:42.978Z,76.84
2018-04-12T07:49:23.484Z,78.67
2018-04-12T07:50:04.005Z,73.57
2018-04-12T07:50:44.534Z,75.79
2018-04-12T07:51:25.031Z,80.88
2018-04-12T07:52:05.528Z,81.27
2018-04-12T07:52:46.059Z,77.51
2018-04-12T07:53:26.554Z,82.19
2018-04-12T07:54:07.091Z,78.15
2018-04-12T07:54:47.600Z,81.52
2018-04-12T07:55:28.171Z,77
2018-04-12T07:56:08.711Z,80.55
2018-04-12T07:56:49.247Z,87.86
2018-04-12T07:57:29.772Z,87.38
2018-04-12T07:58:10.283Z,84.01
2018-04-12T07:58:50.816Z,83.15
2018-04-12T07:59:31.329Z,87.38
2018-04-12T08:00:11.883Z,86.99
2018-04-12T08:00:52.380Z,85.07
2018-04-12T08:01:32.908Z,86.8
2018-04-12T08:02:13.431Z,84.78
2018-04-12T08:02:53.930Z,85.84
2018-04-12T08:03:34.440Z,83.92
2018-04-12T08:04:14.955Z,84.4
2018-04-12T08:04:55.485Z,82.57
2018-04-12T08:05:36.025Z,83.92
2018-04-12T08:06:16.561Z,81.13
2018-04-12T08:06:57.075Z,81.61
2018-04-12T08:07:37.604Z,82.86
2018-04-12T08:08:18.126Z,80.65
2018-04-12T08:08:58.665Z,80.21
2018-04-12T08:09:39.223Z,82.61
2018-04-12T08:10:19.754Z,83.29
2018-04-12T08:11:00.283Z,81.75
2018-04-12T08:11:40.795Z,77
2018-04-12T08:12:21.311Z,80.02
2018-04-12T08:13:01.836Z,79.63
2018-04-12T08:13:43.091Z,80.11
2018-04-12T08:14:23.611Z,76.07
2018-04-12T08:15:04.112Z,79.92
2018-04-12T08:15:44.624Z,80.4
2018-04-12T08:16:25.142Z,81.65
2018-04-12T08:17:05.697Z,81.17
2018-04-12T08:17:46.291Z,79.73
2018-04-12T08:18:26.828Z,79.73
2018-04-12T08:19:07.375Z,78.13
2018-04-12T08:19:47.892Z,76.01
2018-04-12T08:20:28.436Z,77.94
2018-04-12T08:21:08.969Z,78.71
2018-04-12T08:21:49.528Z,78.71
2018-04-12T08:22:30.049Z,76.69
2018-04-12T08:23:10.579Z,81.79
2018-04-12T08:23:51.123Z,81.16
2018-04-12T08:24:31.751Z,77.65
2018-04-12T08:25:12.276Z,74.19
2018-04-12T08:25:52.791Z,77.88
2018-04-12T08:26:33.311Z,82.12
2018-04-12T08:27:13.820Z,76.01
2018-04-12T08:27:54.656Z,76.34
2018-04-12T08:28:35.183Z,76.53
2018-04-12T08:29:15.697Z,77.21
2018-04-12T08:29:56.214Z,80.1
2018-04-12T08:30:36.768Z,75.09
2018-04-12T08:31:17.299Z,77.88
2018-04-12T08:31:57.831Z,74.22
2018-04-12T08:32:38.350Z,78.36
2018-04-12T08:33:18.878Z,81.16
2018-04-12T08:33:59.411Z,73.99
2018-04-12T08:34:39.918Z,75.15
2018-04-12T08:35:20.459Z,81.02
2018-04-12T08:36:01.005Z,81.88
2018-04-12T08:36:41.557Z,81.7
2018-04-12T08:37:22.072Z,79.67
2018-04-12T08:38:02.591Z,75.54
2018-04-12T08:38:43.163Z,77.36
2018-04-12T08:39:23.680Z,78.71
2018-04-12T08:40:04.201Z,78.52
2018-04-12T08:40:44.726Z,78
2018-04-12T08:41:25.249Z,75.82
2018-04-12T08:42:05.771Z,75.92
2018-04-12T08:42:47.078Z,77.17
2018-04-12T08:43:27.721Z,76.11
2018-04-12T08:44:08.239Z,76.11
2018-04-12T08:44:49.806Z,77.36
2018-04-12T08:45:30.361Z,78.33
2018-04-12T08:46:10.846Z,74.09
2018-04-12T08:46:51.390Z,71.59
2018-04-12T08:47:31.939Z,76.31
2018-04-12T08:48:12.411Z,75.82
2018-04-12T08:48:52.881Z,76.01
2018-04-12T08:49:33.405Z,74.57
2018-04-12T08:50:13.888Z,74.57
2018-04-12T08:50:54.383Z,74.48
2018-04-12T08:51:35.004Z,73.22
2018-04-12T08:52:15.452Z,74.13
2018-04-12T08:52:55.936Z,77.84
2018-04-12T08:53:36.551Z,80.73
2018-04-12T08:54:16.955Z,80.68